Peoria, Arizona
Current Conditions -  °F | °C
As of 11:54 AM on Thursday 30 Oct 2014 (Local Time) from KGEU Reporting Station
Scattered Clouds Scattered Clouds  
Wind Chill: 88°   Ceiling: Unl
Heat Index: 88°   Visibility: 20mi
Dew Point: 39°   Wind: 7mph
Humidity: 18%   Direction: 30°NNE
Pressure: 30.01"   Gusts: NA
Location:  33.58°N, 112.24°W
Report Text: KGEU 301854Z 03006KT 20SM SCT250 31/04 A3001
Loading
Personal Weather Stations






























Interactive Weather Map
Tropical Storm Tracking
New forecast layout! Learn more

10-Day Weather Forecast

Advertisements
Track Severe Weather on mobile